Time;durP1;ratioP1;P1;durP2;ratioP2;P2;SDS_P1;SDS_P2;PMS_P1;PMS_P2;Temp;Humidity;BMP_temperature;BMP_pressure;BME280_temperature;BME280_humidity;BME280_pressure;Samples;Min_cycle;Max_cycle;Signal;HPM_P1;HPM_P2
2022/07/29 00:01:08;;;;;;;4.63;2.78;;;14.70;99.90;;;;;;5004464;28;20057;-52
2022/07/29 00:03:35;;;;;;;3.78;2.80;;;14.70;99.90;;;;;;4989930;28;20572;-52
2022/07/29 00:06:01;;;;;;;4.65;2.97;;;14.70;99.90;;;;;;5001243;28;20057;-51
2022/07/29 00:08:27;;;;;;;5.15;3.22;;;14.70;99.90;;;;;;5013223;28;20662;-51
2022/07/29 00:10:53;;;;;;;4.95;3.10;;;14.70;99.90;;;;;;4982511;28;20065;-50
2022/07/29 00:13:19;;;;;;;5.28;3.50;;;14.70;99.90;;;;;;4985631;28;20065;-50
2022/07/29 00:15:45;;;;;;;6.28;3.30;;;14.70;99.90;;;;;;5003828;28;20058;-53
2022/07/29 00:18:11;;;;;;;6.93;3.58;;;14.60;99.90;;;;;;5007137;28;20046;-53
2022/07/29 00:20:37;;;;;;;6.80;3.60;;;14.70;99.90;;;;;;5005855;28;20560;-52
2022/07/29 00:23:03;;;;;;;4.75;3.10;;;14.60;99.90;;;;;;5001315;28;20077;-53
2022/07/29 00:25:30;;;;;;;4.72;3.10;;;14.60;99.90;;;;;;5008102;28;20081;-50
2022/07/29 00:27:56;;;;;;;6.20;3.88;;;14.60;99.90;;;;;;4989437;28;20045;-53
2022/07/29 00:30:22;;;;;;;3.08;2.58;;;14.60;99.90;;;;;;5007699;28;20048;-55
2022/07/29 00:32:49;;;;;;;3.10;2.63;;;14.60;99.90;;;;;;5005156;28;20568;-55
2022/07/29 00:38:02;;;;;;;4.18;2.25;;;14.50;99.90;;;;;;5007485;28;20052;-50
2022/07/29 00:40:28;;;;;;;4.20;2.30;;;14.50;99.90;;;;;;5015886;28;20421;-50
2022/07/29 00:42:55;;;;;;;4.40;2.00;;;14.50;99.90;;;;;;4991144;28;20046;-52
2022/07/29 00:45:21;;;;;;;4.25;1.90;;;14.50;99.90;;;;;;5007089;28;20049;-53
2022/07/29 00:47:48;;;;;;;7.05;1.90;;;14.40;99.90;;;;;;5006655;28;20092;-51
2022/07/29 00:50:15;;;;;;;2.72;1.70;;;14.40;99.90;;;;;;5007614;28;20409;-54
2022/07/29 00:52:42;;;;;;;4.53;2.08;;;14.40;99.90;;;;;;5016276;28;20093;-51
2022/07/29 00:55:10;;;;;;;4.50;1.73;;;14.40;99.90;;;;;;4980326;28;20489;-52
2022/07/29 00:57:40;;;;;;;2.60;1.83;;;14.30;99.90;;;;;;5006637;28;20132;-52
2022/07/29 01:00:09;;;;;;;5.07;2.03;;;14.40;99.90;;;;;;5012932;28;20084;-53
2022/07/29 01:02:35;;;;;;;3.28;1.80;;;14.30;99.90;;;;;;4992634;28;20041;-51
2022/07/29 01:05:03;;;;;;;4.82;1.90;;;14.30;99.90;;;;;;4995695;28;20572;-53
2022/07/29 01:07:32;;;;;;;5.00;2.67;;;14.30;99.90;;;;;;5006198;28;20049;-53
2022/07/29 01:09:58;;;;;;;4.53;1.98;;;14.30;99.90;;;;;;5020391;28;20052;-50
2022/07/29 01:12:27;;;;;;;4.68;2.33;;;14.20;99.90;;;;;;5001997;28;20060;-52
2022/07/29 01:14:55;;;;;;;3.92;1.90;;;14.20;99.90;;;;;;4958935;28;20062;-52
2022/07/29 01:17:26;;;;;;;6.53;2.35;;;14.20;99.90;;;;;;4987523;28;20085;-55
2022/07/29 01:20:02;;;;;;;2.90;1.98;;;14.20;99.90;;;;;;4987482;28;20074;-53
2022/07/29 01:22:34;;;;;;;4.63;2.33;;;14.20;99.90;;;;;;4987306;28;20054;-50
2022/07/29 01:25:30;;;;;;;6.05;2.72;;;14.10;99.90;;;;;;4986093;28;20042;-56
2022/07/29 01:28:15;;;;;;;6.30;2.20;;;14.10;99.90;;;;;;4986270;28;20050;-50
2022/07/29 01:30:44;;;;;;;4.60;2.50;;;14.10;99.90;;;;;;4990664;28;20505;-51
2022/07/29 01:33:48;;;;;;;6.90;2.20;;;14.10;99.90;;;;;;4987205;28;20105;-54
2022/07/29 01:36:10;;;;;;;6.80;2.00;;;14.10;99.90;;;;;;4986423;28;20054;-53
2022/07/29 01:38:41;;;;;;;4.30;2.20;;;14.10;99.90;;;;;;4985122;28;20054;-53
2022/07/29 01:41:11;;;;;;;6.85;2.90;;;14.10;99.90;;;;;;4985077;28;20769;-53
2022/07/29 01:43:59;;;;;;;4.45;2.38;;;14.10;99.90;;;;;;4985733;28;20057;-55
2022/07/29 01:46:31;;;;;;;3.33;1.77;;;14.10;99.90;;;;;;4960623;28;20058;-53
2022/07/29 01:49:14;;;;;;;3.83;2.20;;;14.10;99.90;;;;;;4985494;28;20069;-50
2022/07/29 01:51:54;;;;;;;4.50;2.35;;;14.00;99.90;;;;;;4986034;28;20046;-51
2022/07/29 01:54:28;;;;;;;3.88;2.58;;;14.10;99.90;;;;;;4986072;28;20039;-52
2022/07/29 01:56:56;;;;;;;4.40;2.13;;;14.10;99.90;;;;;;4987482;28;20058;-53
2022/07/29 01:59:25;;;;;;;5.57;2.55;;;14.10;99.90;;;;;;4986925;28;20046;-52
2022/07/29 02:01:56;;;;;;;7.35;2.58;;;14.10;99.90;;;;;;4968260;28;20442;-53
2022/07/29 02:04:23;;;;;;;5.90;2.75;;;14.10;99.90;;;;;;4975520;28;20049;-49
2022/07/29 02:06:51;;;;;;;4.07;2.17;;;14.10;99.90;;;;;;4981255;28;20073;-55
2022/07/29 02:09:20;;;;;;;5.30;2.22;;;14.10;99.90;;;;;;4979677;28;20046;-49
2022/07/29 02:11:51;;;;;;;6.22;2.30;;;14.00;99.90;;;;;;4980322;28;20057;-53
2022/07/29 02:14:19;;;;;;;5.20;2.58;;;14.10;99.90;;;;;;4978370;28;20051;-48
2022/07/29 02:16:47;;;;;;;5.28;2.42;;;14.10;99.90;;;;;;4980609;28;20465;-52
2022/07/29 02:19:14;;;;;;;3.80;2.08;;;14.10;99.90;;;;;;4977753;28;20421;-53
2022/07/29 02:21:42;;;;;;;4.65;2.55;;;14.10;99.90;;;;;;4978780;28;20194;-52
2022/07/29 02:24:10;;;;;;;3.58;2.30;;;14.10;99.90;;;;;;4966187;28;20804;-50
2022/07/29 02:26:39;;;;;;;3.92;2.50;;;14.10;99.90;;;;;;4965047;28;20046;-53
2022/07/29 02:29:08;;;;;;;4.45;2.40;;;14.00;99.90;;;;;;4976148;28;20054;-51
2022/07/29 02:31:36;;;;;;;6.32;2.35;;;14.00;99.90;;;;;;4968084;28;20580;-51
2022/07/29 02:34:08;;;;;;;3.97;2.40;;;14.00;99.90;;;;;;4980473;28;20047;-54
2022/07/29 02:36:36;;;;;;;5.50;2.40;;;14.00;99.90;;;;;;4966621;28;20062;-55
2022/07/29 02:39:03;;;;;;;8.10;2.60;;;14.00;99.90;;;;;;4980589;28;20093;-51
2022/07/29 02:41:36;;;;;;;3.25;2.33;;;14.00;99.90;;;;;;4959299;28;20525;-52
2022/07/29 02:44:34;;;;;;;4.30;2.20;;;14.00;99.90;;;;;;4965658;28;20058;-51
2022/07/29 02:47:20;;;;;;;9.48;2.20;;;13.90;99.90;;;;;;4880170;29;20053;-56
2022/07/29 02:49:54;;;;;;;3.72;2.30;;;13.90;99.90;;;;;;4857126;29;20052;-48
2022/07/29 02:52:29;;;;;;;3.63;2.30;;;13.90;99.90;;;;;;4885257;29;20048;-51
2022/07/29 02:55:24;;;;;;;4.40;2.30;;;14.00;99.90;;;;;;4872723;29;20056;-61
2022/07/29 02:57:59;;;;;;;6.93;2.65;;;13.90;99.90;;;;;;4886231;29;20135;-51
2022/07/29 03:00:28;;;;;;;4.53;2.30;;;13.90;99.90;;;;;;4883893;29;20663;-53
2022/07/29 03:02:58;;;;;;;4.90;2.33;;;13.90;99.90;;;;;;4877867;29;20060;-52
2022/07/29 03:05:27;;;;;;;4.28;2.45;;;14.00;99.90;;;;;;4883107;29;20052;-55
2022/07/29 03:08:04;;;;;;;5.70;2.97;;;13.90;99.90;;;;;;4886491;29;20942;-55
2022/07/29 03:10:31;;;;;;;7.28;2.83;;;14.00;99.90;;;;;;4882252;29;20060;-54
2022/07/29 03:12:58;;;;;;;6.78;2.95;;;13.90;99.90;;;;;;4877853;29;20060;-51
2022/07/29 03:15:24;;;;;;;5.45;2.80;;;13.90;99.90;;;;;;4907029;29;20048;-50
2022/07/29 03:17:52;;;;;;;6.55;2.88;;;14.00;99.90;;;;;;4904735;29;20107;-54
2022/07/29 03:20:18;;;;;;;4.95;2.80;;;14.00;99.90;;;;;;4916455;29;20047;-49
2022/07/29 03:22:46;;;;;;;4.03;2.38;;;14.00;99.90;;;;;;4919145;28;20055;-52
2022/07/29 03:25:14;;;;;;;3.90;2.30;;;14.00;99.90;;;;;;4977892;28;20489;-53
2022/07/29 03:27:41;;;;;;;7.30;2.60;;;14.00;99.90;;;;;;4965734;28;20050;-55
2022/07/29 03:30:08;;;;;;;5.07;2.28;;;14.00;99.90;;;;;;4976852;28;20046;-55
2022/07/29 03:32:34;;;;;;;4.45;2.65;;;14.00;99.90;;;;;;4974561;28;20042;-48
2022/07/29 03:35:00;;;;;;;5.55;2.55;;;14.00;99.90;;;;;;4977942;28;20050;-51
2022/07/29 03:37:26;;;;;;;5.00;2.47;;;14.00;99.90;;;;;;4980413;28;20485;-51
2022/07/29 03:39:55;;;;;;;5.55;2.45;;;14.00;99.90;;;;;;4978735;28;20464;-56
2022/07/29 03:42:25;;;;;;;4.22;2.90;;;14.00;99.90;;;;;;4962168;28;20050;-51
2022/07/29 03:44:56;;;;;;;7.22;2.55;;;14.00;99.90;;;;;;4980657;28;20567;-53
2022/07/29 03:47:27;;;;;;;4.13;2.58;;;14.00;99.90;;;;;;4980711;28;20109;-52
2022/07/29 03:50:02;;;;;;;5.35;2.55;;;14.00;99.90;;;;;;4978222;28;20528;-51
2022/07/29 03:52:29;;;;;;;6.50;3.05;;;14.00;99.90;;;;;;4983505;28;20053;-54
2022/07/29 03:54:55;;;;;;;4.63;2.55;;;14.00;99.90;;;;;;4970218;28;20310;-53
2022/07/29 03:57:34;;;;;;;5.50;2.85;;;14.00;99.90;;;;;;4982481;28;20050;-56
2022/07/29 04:00:04;;;;;;;5.03;2.33;;;14.00;99.90;;;;;;4979337;28;20054;-55
2022/07/29 04:02:32;;;;;;;7.40;2.47;;;14.00;99.90;;;;;;4967665;28;20058;-51
2022/07/29 04:04:58;;;;;;;5.25;2.20;;;13.90;99.90;;;;;;4981189;28;20056;-57
2022/07/29 04:07:24;;;;;;;4.47;2.20;;;13.90;99.90;;;;;;4982925;28;20054;-50
2022/07/29 04:09:50;;;;;;;6.38;2.35;;;13.90;99.90;;;;;;4982744;28;20080;-53
2022/07/29 04:12:16;;;;;;;5.18;2.47;;;13.90;99.90;;;;;;4981467;28;20054;-53
2022/07/29 04:14:43;;;;;;;4.20;2.33;;;13.90;99.90;;;;;;4982627;28;20058;-53
2022/07/29 04:17:09;;;;;;;6.53;2.50;;;13.90;99.90;;;;;;4979152;28;20051;-52
2022/07/29 04:19:36;;;;;;;6.97;2.58;;;13.90;99.90;;;;;;4958761;28;20604;-48
2022/07/29 04:22:02;;;;;;;7.05;2.40;;;13.80;99.90;;;;;;4983748;28;20104;-54
2022/07/29 04:24:28;;;;;;;6.35;2.65;;;13.80;99.90;;;;;;4981204;28;20074;-53
2022/07/29 04:26:54;;;;;;;5.82;2.50;;;13.90;99.90;;;;;;4981612;28;20077;-50
2022/07/29 04:29:20;;;;;;;4.82;2.80;;;13.80;99.90;;;;;;4962568;28;20489;-54
2022/07/29 04:31:46;;;;;;;6.07;2.80;;;13.80;99.90;;;;;;4968874;28;20125;-50
2022/07/29 04:34:12;;;;;;;7.20;2.92;;;13.90;99.90;;;;;;4970551;28;20112;-50
2022/07/29 04:36:38;;;;;;;4.88;2.40;;;13.90;99.90;;;;;;4968528;28;20061;-50
2022/07/29 04:39:04;;;;;;;6.50;2.65;;;13.90;99.90;;;;;;4960961;28;20047;-51
2022/07/29 04:41:31;;;;;;;6.65;2.75;;;13.90;99.90;;;;;;4979679;28;20050;-53
2022/07/29 04:43:57;;;;;;;7.20;2.63;;;13.80;99.90;;;;;;4968953;28;20553;-56
2022/07/29 04:46:23;;;;;;;4.63;2.55;;;13.90;99.90;;;;;;4981398;28;20047;-50
2022/07/29 04:48:48;;;;;;;4.15;2.22;;;13.80;99.90;;;;;;4979276;28;20117;-50
2022/07/29 04:51:15;;;;;;;7.95;3.20;;;13.90;99.90;;;;;;4982135;28;20055;-53
2022/07/29 04:53:41;;;;;;;3.55;2.20;;;13.90;99.90;;;;;;4979529;28;20392;-50
2022/07/29 04:56:07;;;;;;;4.18;2.45;;;13.90;99.90;;;;;;4964704;28;20186;-55
2022/07/29 04:58:35;;;;;;;4.53;2.63;;;14.00;99.90;;;;;;4983311;28;20161;-50
2022/07/29 05:01:02;;;;;;;4.45;2.33;;;14.00;99.90;;;;;;4961081;28;20063;-52
2022/07/29 05:03:29;;;;;;;4.63;2.85;;;14.00;99.90;;;;;;4959735;28;20142;-55
2022/07/29 05:05:55;;;;;;;5.18;2.80;;;14.10;99.90;;;;;;4982625;28;20046;-50
2022/07/29 05:08:21;;;;;;;6.07;2.50;;;14.10;99.90;;;;;;4980636;28;20402;-51
2022/07/29 05:10:47;;;;;;;8.73;2.60;;;14.20;99.90;;;;;;4980272;28;20453;-52
2022/07/29 05:13:25;;;;;;;4.50;2.50;;;14.30;99.90;;;;;;4979760;28;20066;-50
2022/07/29 05:15:51;;;;;;;5.45;2.47;;;14.40;99.90;;;;;;4978323;28;20085;-57
2022/07/29 05:18:17;;;;;;;4.07;2.50;;;14.50;99.90;;;;;;4979887;28;20133;-49
2022/07/29 05:20:43;;;;;;;4.18;2.33;;;14.60;99.90;;;;;;4979639;28;20054;-48
2022/07/29 05:23:15;;;;;;;6.20;2.40;;;14.80;99.90;;;;;;4977232;28;20042;-51
2022/07/29 05:25:41;;;;;;;5.00;2.33;;;14.90;99.90;;;;;;4980121;28;20052;-53
2022/07/29 05:28:07;;;;;;;3.85;2.65;;;15.00;99.90;;;;;;4980463;28;20390;-55
2022/07/29 05:30:33;;;;;;;6.88;2.20;;;15.10;99.90;;;;;;4979945;28;20087;-53
2022/07/29 05:32:59;;;;;;;5.20;2.03;;;15.20;99.90;;;;;;4977852;28;20240;-53
2022/07/29 05:35:25;;;;;;;5.63;3.05;;;15.40;99.90;;;;;;4966923;28;20059;-50
2022/07/29 05:37:51;;;;;;;5.72;2.50;;;15.70;99.90;;;;;;4968049;28;20058;-51
2022/07/29 05:40:17;;;;;;;6.82;2.70;;;16.10;99.90;;;;;;4968304;28;20043;-54
2022/07/29 05:42:43;;;;;;;6.75;3.05;;;16.70;99.90;;;;;;4969143;28;20500;-53
2022/07/29 05:45:09;;;;;;;6.03;2.20;;;17.50;99.90;;;;;;4968356;28;20051;-48
2022/07/29 05:47:35;;;;;;;3.42;2.20;;;18.40;99.90;;;;;;4968072;28;20681;-55
2022/07/29 05:50:01;;;;;;;3.70;2.47;;;19.40;99.90;;;;;;4967814;28;20050;-53
2022/07/29 05:52:27;;;;;;;5.82;2.40;;;20.70;99.90;;;;;;4968602;28;20494;-51
2022/07/29 05:54:53;;;;;;;7.00;1.95;;;21.80;99.90;;;;;;4950276;28;20047;-50
2022/07/29 05:57:20;;;;;;;4.00;2.35;;;22.90;99.90;;;;;;4966984;28;20120;-51
2022/07/29 05:59:47;;;;;;;4.57;2.10;;;23.20;99.80;;;;;;4972747;28;20090;-52
2022/07/29 06:02:13;;;;;;;4.82;2.05;;;23.40;99.90;;;;;;4985022;28;20050;-47
2022/07/29 06:04:39;;;;;;;5.68;2.42;;;23.50;98.90;;;;;;4987223;28;20046;-50
2022/07/29 06:07:05;;;;;;;5.68;2.20;;;24.20;98.60;;;;;;4987162;28;20057;-49
2022/07/29 06:09:31;;;;;;;7.28;2.42;;;24.70;97.80;;;;;;4969230;28;20076;-51
2022/07/29 06:12:01;;;;;;;4.15;2.10;;;25.30;95.60;;;;;;4987077;28;20050;-52
2022/07/29 06:14:28;;;;;;;4.88;2.42;;;25.40;93.70;;;;;;4985293;28;20054;-50
2022/07/29 06:16:54;;;;;;;4.97;2.08;;;25.80;95.50;;;;;;4988625;28;20042;-49
2022/07/29 06:19:20;;;;;;;4.32;1.88;;;26.60;94.40;;;;;;5006243;28;20077;-50
2022/07/29 06:21:47;;;;;;;5.03;2.33;;;26.80;93.20;;;;;;5006417;28;20045;-52
2022/07/29 06:24:15;;;;;;;4.60;2.40;;;26.40;93.40;;;;;;5006319;28;20058;-52
2022/07/29 06:26:41;;;;;;;5.40;2.42;;;25.50;93.00;;;;;;5005779;28;20610;-51
2022/07/29 06:29:10;;;;;;;5.32;2.85;;;24.50;93.00;;;;;;4989875;28;20057;-55
2022/07/29 06:31:37;;;;;;;4.40;2.13;;;23.30;94.10;;;;;;4995366;28;20148;-52
2022/07/29 06:34:06;;;;;;;6.28;2.38;;;22.50;94.80;;;;;;5007745;28;20073;-49
2022/07/29 06:36:38;;;;;;;4.15;1.83;;;22.10;95.70;;;;;;5025080;28;20045;-52
2022/07/29 06:39:06;;;;;;;3.58;2.13;;;21.90;96.20;;;;;;5024711;28;20495;-47
2022/07/29 06:41:32;;;;;;;3.85;2.00;;;22.40;96.30;;;;;;5004440;28;20053;-53
2022/07/29 06:43:59;;;;;;;3.50;1.90;;;22.60;95.90;;;;;;5005207;28;20128;-51
2022/07/29 06:46:27;;;;;;;3.97;2.15;;;22.60;96.00;;;;;;4971509;28;20062;-51
2022/07/29 06:48:54;;;;;;;4.05;2.08;;;22.60;96.00;;;;;;5004717;28;20328;-51
2022/07/29 06:51:21;;;;;;;4.97;2.40;;;23.20;95.30;;;;;;4997970;28;20050;-49
2022/07/29 06:53:47;;;;;;;4.97;2.25;;;22.70;95.30;;;;;;5005229;28;20127;-50
2022/07/29 06:56:13;;;;;;;4.82;2.90;;;22.70;95.30;;;;;;5005365;28;20050;-49
2022/07/29 06:58:39;;;;;;;4.15;2.40;;;22.40;95.30;;;;;;5004527;28;20068;-53
2022/07/29 07:01:06;;;;;;;4.53;1.90;;;22.70;95.50;;;;;;4985770;28;20092;-48
2022/07/29 07:03:32;;;;;;;4.70;1.90;;;23.20;95.30;;;;;;5005255;28;20050;-51
2022/07/29 07:05:59;;;;;;;3.63;2.03;;;23.40;94.30;;;;;;5004268;28;20061;-48
2022/07/29 07:08:25;;;;;;;6.82;2.30;;;23.40;94.50;;;;;;4987321;28;20058;-52
2022/07/29 07:10:52;;;;;;;6.65;2.05;;;23.50;94.40;;;;;;5000014;28;20416;-50
2022/07/29 07:13:18;;;;;;;7.57;2.65;;;23.70;94.20;;;;;;4992698;28;20058;-49
2022/07/29 07:15:47;;;;;;;4.55;2.40;;;24.10;93.40;;;;;;4966735;28;20062;-54
2022/07/29 07:18:14;;;;;;;6.18;2.78;;;23.70;93.20;;;;;;4950309;28;20065;-50
2022/07/29 07:20:40;;;;;;;6.05;2.28;;;22.90;94.00;;;;;;4985246;28;20490;-47
2022/07/29 07:23:07;;;;;;;4.55;2.22;;;22.60;94.50;;;;;;4984201;28;20050;-52
2022/07/29 07:25:33;;;;;;;5.32;2.60;;;22.20;94.70;;;;;;4984842;28;20072;-52
2022/07/29 07:27:59;;;;;;;5.75;2.00;;;21.90;95.30;;;;;;4985345;28;20541;-48
2022/07/29 07:30:27;;;;;;;4.03;2.53;;;22.00;95.60;;;;;;4979816;28;20050;-50
2022/07/29 07:32:53;;;;;;;4.32;2.33;;;22.00;95.40;;;;;;4984206;28;20125;-52
2022/07/29 07:35:19;;;;;;;4.13;2.53;;;21.90;95.30;;;;;;4985225;28;20090;-51
2022/07/29 07:37:45;;;;;;;7.82;2.47;;;21.70;95.40;;;;;;4985296;28;20514;-52
2022/07/29 07:40:15;;;;;;;5.35;2.13;;;21.50;95.70;;;;;;4967330;28;20046;-51
2022/07/29 07:42:42;;;;;;;4.00;2.15;;;21.30;95.60;;;;;;4983800;28;20050;-52
2022/07/29 07:45:12;;;;;;;5.40;2.30;;;21.00;95.90;;;;;;4984708;28;20050;-50
2022/07/29 07:47:39;;;;;;;4.70;2.65;;;20.50;96.20;;;;;;4984211;28;20093;-47
2022/07/29 07:50:07;;;;;;;6.68;2.33;;;20.20;96.70;;;;;;4985442;28;20046;-53
2022/07/29 07:52:33;;;;;;;5.22;2.42;;;19.90;97.10;;;;;;4985158;28;20109;-53
2022/07/29 07:54:59;;;;;;;3.90;2.40;;;19.70;97.50;;;;;;4984522;28;20060;-50
2022/07/29 07:57:25;;;;;;;6.30;2.80;;;19.40;97.70;;;;;;4984121;28;20046;-55
2022/07/29 07:59:52;;;;;;;6.97;3.10;;;19.20;98.00;;;;;;4966983;28;20524;-51
2022/07/29 08:02:18;;;;;;;4.30;2.42;;;19.10;98.40;;;;;;4966280;28;20513;-52
2022/07/29 08:04:44;;;;;;;3.97;2.10;;;19.00;98.50;;;;;;4965954;28;20140;-49
2022/07/29 08:07:16;;;;;;;4.57;2.28;;;18.90;99.10;;;;;;4982661;28;20046;-52
2022/07/29 08:09:42;;;;;;;3.78;2.55;;;18.80;98.90;;;;;;4959227;28;20804;-51
2022/07/29 08:12:08;;;;;;;4.30;2.33;;;18.60;98.90;;;;;;4984813;28;20085;-49
2022/07/29 08:14:34;;;;;;;5.90;2.22;;;18.40;99.20;;;;;;5018265;28;20207;-52
2022/07/29 08:17:00;;;;;;;6.65;2.78;;;18.30;99.30;;;;;;5005229;28;20472;-49
2022/07/29 08:19:26;;;;;;;7.05;2.70;;;18.20;99.90;;;;;;5024794;28;20049;-50
2022/07/29 08:21:53;;;;;;;5.95;2.58;;;18.10;99.90;;;;;;5024220;28;20048;-54
2022/07/29 08:27:05;;;;;;;5.97;2.45;;;17.90;99.90;;;;;;5001580;28;20061;-50
2022/07/29 08:29:31;;;;;;;6.63;3.58;;;17.90;99.90;;;;;;5005452;28;20046;-54
2022/07/29 08:31:57;;;;;;;5.30;2.85;;;17.80;99.90;;;;;;5023525;28;20041;-52
2022/07/29 08:34:23;;;;;;;6.93;2.50;;;17.80;99.90;;;;;;5024449;28;20049;-51
2022/07/29 08:36:49;;;;;;;8.07;2.53;;;17.80;99.90;;;;;;5015401;28;20379;-50
2022/07/29 08:39:15;;;;;;;6.72;3.10;;;17.80;99.90;;;;;;5013871;28;20061;-53
2022/07/29 08:41:41;;;;;;;6.82;2.88;;;17.80;99.90;;;;;;5005345;28;20124;-51
2022/07/29 08:44:06;;;;;;;5.82;2.67;;;17.70;99.90;;;;;;4986154;28;20058;-55
2022/07/29 08:46:33;;;;;;;4.28;2.65;;;17.70;99.90;;;;;;4989606;28;20074;-54
2022/07/29 08:48:59;;;;;;;4.60;2.90;;;17.60;99.90;;;;;;5004824;28;20084;-53
2022/07/29 08:51:26;;;;;;;3.58;2.60;;;17.60;99.90;;;;;;5004885;28;20124;-55
2022/07/29 08:53:54;;;;;;;6.47;2.40;;;17.60;99.90;;;;;;4988906;28;20416;-54
2022/07/29 08:56:20;;;;;;;7.90;2.95;;;17.50;99.90;;;;;;4958466;28;20566;-47
2022/07/29 08:58:47;;;;;;;5.65;2.78;;;17.60;99.90;;;;;;5004714;28;20038;-52
2022/07/29 09:01:23;;;;;;;7.47;3.33;;;17.60;99.90;;;;;;4986572;28;20060;-52
2022/07/29 09:03:49;;;;;;;7.00;3.28;;;17.60;99.90;;;;;;4990537;28;20058;-47
2022/07/29 09:06:19;;;;;;;6.47;2.88;;;17.60;99.90;;;;;;5005801;28;20068;-52
2022/07/29 09:08:45;;;;;;;7.05;2.80;;;17.70;99.90;;;;;;5006085;28;20061;-53
2022/07/29 09:11:12;;;;;;;4.45;3.03;;;17.70;99.90;;;;;;5006698;28;20057;-53
2022/07/29 09:13:38;;;;;;;5.72;3.15;;;17.80;99.90;;;;;;5019315;28;20054;-52
2022/07/29 09:16:04;;;;;;;6.13;3.08;;;17.90;99.90;;;;;;5009233;28;20064;-52
2022/07/29 09:18:35;;;;;;;6.13;3.05;;;17.90;99.90;;;;;;4986162;28;20052;-49
2022/07/29 09:24:03;;;;;;;4.45;3.00;;;18.20;99.90;;;;;;5007404;28;20058;-51
2022/07/29 09:26:30;;;;;;;8.30;3.10;;;18.50;99.90;;;;;;5008168;28;20141;-51
2022/07/29 09:28:57;;;;;;;4.85;2.50;;;18.60;99.90;;;;;;4988624;28;20045;-52
2022/07/29 09:31:34;;;;;;;8.27;3.25;;;18.80;99.90;;;;;;5007092;28;20049;-52
2022/07/29 09:34:00;;;;;;;5.32;3.47;;;18.90;99.90;;;;;;5009034;28;20586;-55
2022/07/29 09:36:28;;;;;;;8.57;2.97;;;19.10;99.90;;;;;;5026411;28;20556;-53
2022/07/29 09:38:59;;;;;;;4.63;2.70;;;19.30;99.90;;;;;;5026875;28;20049;-51
2022/07/29 09:41:25;;;;;;;5.63;2.45;;;19.60;99.90;;;;;;5005373;28;20122;-52
2022/07/29 09:43:56;;;;;;;8.05;3.17;;;19.90;99.90;;;;;;5007063;28;20099;-52
2022/07/29 09:46:23;;;;;;;6.28;3.00;;;20.10;99.90;;;;;;5023958;28;20054;-47
2022/07/29 09:49:11;;;;;;;7.88;3.33;;;20.30;99.90;;;;;;5023012;28;20048;-53
2022/07/29 09:51:37;;;;;;;4.68;2.97;;;20.30;99.90;;;;;;5006131;28;20045;-51
2022/07/29 09:54:23;;;;;;;5.00;2.70;;;20.40;99.90;;;;;;5006373;28;20588;-52
2022/07/29 09:56:49;;;;;;;7.30;2.72;;;20.40;99.90;;;;;;5006009;28;20049;-49
2022/07/29 09:59:15;;;;;;;5.72;2.72;;;20.50;99.90;;;;;;5004267;28;20058;-47
2022/07/29 10:01:41;;;;;;;9.85;2.95;;;20.60;99.90;;;;;;5005771;28;20060;-51
2022/07/29 10:04:07;;;;;;;5.90;3.00;;;20.50;99.90;;;;;;5005538;28;20081;-52
2022/07/29 10:06:34;;;;;;;5.20;2.70;;;20.30;99.90;;;;;;4990449;28;20160;-54
2022/07/29 10:09:15;;;;;;;5.55;3.05;;;20.20;99.90;;;;;;5019846;28;20049;-49
2022/07/29 10:11:41;;;;;;;8.15;3.20;;;20.10;99.90;;;;;;5002815;28;20057;-50
2022/07/29 10:14:07;;;;;;;8.23;3.00;;;19.90;99.90;;;;;;4991948;28;20054;-56
2022/07/29 10:16:33;;;;;;;7.68;2.97;;;19.80;99.90;;;;;;4964309;28;20072;-50
2022/07/29 10:19:00;;;;;;;5.20;3.10;;;19.90;99.90;;;;;;4970180;28;20050;-50
2022/07/29 10:21:27;;;;;;;5.38;2.72;;;19.80;99.90;;;;;;4985896;28;20046;-56
2022/07/29 10:23:59;;;;;;;8.05;3.75;;;19.90;99.90;;;;;;4967455;28;20049;-51
2022/07/29 10:26:25;;;;;;;5.32;2.78;;;19.90;99.90;;;;;;4982523;28;20042;-53
2022/07/29 10:28:51;;;;;;;6.32;2.63;;;19.90;99.90;;;;;;4984796;28;20053;-53
2022/07/29 10:31:42;;;;;;;9.68;2.97;;;19.90;99.90;;;;;;4986117;28;20097;-52
2022/07/29 10:34:14;;;;;;;8.02;2.83;;;20.00;99.90;;;;;;4971948;28;20094;-52
2022/07/29 10:37:03;;;;;;;5.40;3.22;;;20.10;99.90;;;;;;4985799;28;20054;-53
2022/07/29 10:40:00;;;;;;;8.02;3.53;;;20.10;99.90;;;;;;4968479;28;20413;-54
2022/07/29 10:42:29;;;;;;;5.65;2.92;;;20.20;99.90;;;;;;4985243;28;20497;-54
2022/07/29 10:44:56;;;;;;;4.97;2.78;;;20.00;99.90;;;;;;4982226;28;20055;-49
2022/07/29 10:47:26;;;;;;;5.72;3.55;;;19.90;99.90;;;;;;4986189;28;20402;-53
2022/07/29 10:50:04;;;;;;;7.53;3.22;;;19.90;99.90;;;;;;4985136;28;20137;-53
2022/07/29 10:52:57;;;;;;;5.90;3.38;;;19.80;99.90;;;;;;4985364;28;20050;-53
2022/07/29 10:55:44;;;;;;;9.73;3.40;;;19.90;99.90;;;;;;4986193;28;20054;-47
2022/07/29 10:58:16;;;;;;;9.48;3.65;;;19.90;99.90;;;;;;4977453;28;20077;-49
2022/07/29 11:00:42;;;;;;;5.83;3.23;;;20.00;99.90;;;;;;4965134;28;20057;-47
2022/07/29 11:03:07;;;;;;;4.97;3.10;;;20.10;99.90;;;;;;4986004;28;20294;-51
2022/07/29 11:05:53;;;;;;;8.32;3.30;;;20.30;99.90;;;;;;4985469;28;20097;-49
2022/07/29 11:08:23;;;;;;;6.47;3.30;;;20.60;99.90;;;;;;4983873;28;20390;-51
2022/07/29 11:10:53;;;;;;;9.38;3.67;;;20.80;99.90;;;;;;4966818;28;20042;-52
2022/07/29 11:13:44;;;;;;;8.10;4.43;;;21.00;99.90;;;;;;4985189;28;20058;-49
2022/07/29 11:16:09;;;;;;;6.78;3.83;;;21.20;99.90;;;;;;4984835;28;20062;-48
2022/07/29 11:18:35;;;;;;;8.07;3.97;;;21.30;99.90;;;;;;4986070;28;20076;-51
2022/07/29 11:21:01;;;;;;;9.07;4.35;;;21.50;99.90;;;;;;4985633;28;20050;-49
2022/07/29 11:23:42;;;;;;;6.03;4.18;;;21.50;99.90;;;;;;4984881;28;20049;-51
2022/07/29 11:26:25;;;;;;;9.93;3.60;;;21.60;99.90;;;;;;4984773;28;20046;-53
2022/07/29 11:28:53;;;;;;;8.25;3.85;;;21.70;99.90;;;;;;4985674;28;20058;-51
2022/07/29 11:31:35;;;;;;;5.78;3.20;;;21.70;99.90;;;;;;4982987;28;20100;-53
2022/07/29 11:34:20;;;;;;;6.10;3.97;;;21.60;98.90;;;;;;4982552;28;20105;-51
2022/07/29 11:37:12;;;;;;;7.45;3.40;;;21.40;99.70;;;;;;4962025;28;20105;-51
2022/07/29 11:39:44;;;;;;;5.90;3.67;;;21.40;99.40;;;;;;4982556;28;20129;-52
2022/07/29 11:42:16;;;;;;;8.35;4.07;;;21.40;99.80;;;;;;4983337;28;20058;-54
2022/07/29 11:44:56;;;;;;;8.68;2.90;;;21.40;99.70;;;;;;4978769;28;20425;-50
2022/07/29 11:47:22;;;;;;;11.07;4.38;;;21.40;99.90;;;;;;4981841;28;20068;-49
2022/07/29 11:49:50;;;;;;;6.45;3.08;;;21.40;99.50;;;;;;4982485;28;20051;-51
2022/07/29 11:52:17;;;;;;;5.55;3.00;;;21.50;99.90;;;;;;4981892;28;20046;-51
2022/07/29 11:54:45;;;;;;;7.45;3.78;;;21.60;99.90;;;;;;4981868;28;20346;-49
2022/07/29 11:57:10;;;;;;;7.22;3.40;;;21.70;99.90;;;;;;4981484;28;20454;-53
2022/07/29 11:59:45;;;;;;;8.50;4.05;;;21.80;99.90;;;;;;4984465;28;20081;-51
2022/07/29 12:02:11;;;;;;;5.85;3.53;;;22.00;99.90;;;;;;4978263;28;20047;-52
2022/07/29 12:04:53;;;;;;;10.05;3.85;;;22.20;99.90;;;;;;4983835;28;20173;-51
2022/07/29 12:07:34;;;;;;;8.40;4.07;;;22.40;99.90;;;;;;4983632;28;20054;-46
2022/07/29 12:10:00;;;;;;;8.15;4.15;;;22.70;99.80;;;;;;4960836;28;20488;-54
2022/07/29 12:12:27;;;;;;;8.70;4.35;;;23.10;99.40;;;;;;4984657;28;20050;-51
2022/07/29 12:14:55;;;;;;;7.70;4.25;;;23.30;99.20;;;;;;5013210;28;20165;-51
2022/07/29 12:17:39;;;;;;;8.95;4.05;;;23.30;99.00;;;;;;5006983;28;20058;-48
2022/07/29 12:20:06;;;;;;;7.03;4.35;;;23.50;98.00;;;;;;5000748;28;20448;-47
2022/07/29 12:22:34;;;;;;;9.65;4.20;;;23.60;97.90;;;;;;5007546;28;20547;-51
2022/07/29 12:25:05;;;;;;;7.57;4.18;;;23.60;97.80;;;;;;5007835;28;20042;-51
2022/07/29 12:27:32;;;;;;;19.50;4.28;;;23.50;97.50;;;;;;5008414;28;20048;-50
2022/07/29 12:30:14;;;;;;;8.25;3.78;;;23.70;97.50;;;;;;4995331;28;20189;-52
2022/07/29 12:32:47;;;;;;;5.78;4.10;;;23.70;97.20;;;;;;4987873;28;20050;-49
2022/07/29 12:35:21;;;;;;;10.20;5.03;;;23.90;96.70;;;;;;5002450;28;20056;-52
2022/07/29 12:37:49;;;;;;;6.47;3.65;;;23.80;96.90;;;;;;5027235;28;20085;-52
2022/07/29 12:40:16;;;;;;;10.52;3.78;;;23.90;96.70;;;;;;5027657;28;20275;-53
2022/07/29 12:43:12;;;;;;;5.88;2.90;;;24.00;96.40;;;;;;5027589;28;20164;-51
2022/07/29 12:45:40;;;;;;;5.95;3.50;;;23.90;96.20;;;;;;5000760;28;20501;-50
2022/07/29 12:48:08;;;;;;;8.40;3.10;;;23.90;96.40;;;;;;5007192;28;20530;-50
2022/07/29 12:50:35;;;;;;;10.10;3.00;;;24.00;96.40;;;;;;5004626;28;20057;-54
2022/07/29 12:53:13;;;;;;;7.88;3.20;;;24.00;96.20;;;;;;5023820;28;20088;-51
2022/07/29 12:55:51;;;;;;;7.45;2.90;;;24.10;95.60;;;;;;5026919;28;20091;-47
2022/07/29 12:58:38;;;;;;;5.88;3.30;;;24.10;95.40;;;;;;4980629;28;20052;-52
2022/07/29 13:01:16;;;;;;;9.98;3.35;;;24.10;94.90;;;;;;5008857;28;20108;-54
2022/07/29 13:03:52;;;;;;;9.52;3.17;;;24.10;95.40;;;;;;5008165;28;20050;-54
2022/07/29 13:06:37;;;;;;;7.85;2.58;;;24.20;95.40;;;;;;5007496;28;20375;-51